sensor_id;sensor_type;location;lat;lon;timestamp;P1;durP1;ratioP1;P2;durP2;ratioP2
5303;SDS011;2674;49.722;10.892;2023-04-25T00:01:59;6.67;;;6.03;;
5303;SDS011;2674;49.722;10.892;2023-04-25T00:04:25;7.37;;;5.53;;
5303;SDS011;2674;49.722;10.892;2023-04-25T00:06:53;5.60;;;5.10;;
5303;SDS011;2674;49.722;10.892;2023-04-25T00:09:19;5.30;;;4.80;;
5303;SDS011;2674;49.722;10.892;2023-04-25T00:11:45;6.10;;;5.10;;
5303;SDS011;2674;49.722;10.892;2023-04-25T00:14:11;6.50;;;5.40;;
5303;SDS011;2674;49.722;10.892;2023-04-25T00:16:36;6.37;;;5.43;;
5303;SDS011;2674;49.722;10.892;2023-04-25T00:19:02;5.50;;;5.00;;
5303;SDS011;2674;49.722;10.892;2023-04-25T00:21:28;6.00;;;5.27;;
5303;SDS011;2674;49.722;10.892;2023-04-25T00:23:56;6.47;;;4.83;;
5303;SDS011;2674;49.722;10.892;2023-04-25T00:26:22;5.70;;;5.20;;
5303;SDS011;2674;49.722;10.892;2023-04-25T00:28:48;6.57;;;4.80;;
5303;SDS011;2674;49.722;10.892;2023-04-25T00:31:14;7.83;;;5.70;;
5303;SDS011;2674;49.722;10.892;2023-04-25T00:33:40;5.03;;;4.53;;
5303;SDS011;2674;49.722;10.892;2023-04-25T00:36:06;5.50;;;5.00;;
5303;SDS011;2674;49.722;10.892;2023-04-25T00:38:32;6.17;;;4.43;;
5303;SDS011;2674;49.722;10.892;2023-04-25T00:40:58;5.90;;;4.97;;
5303;SDS011;2674;49.722;10.892;2023-04-25T00:43:25;6.73;;;5.20;;
5303;SDS011;2674;49.722;10.892;2023-04-25T00:45:52;5.70;;;4.57;;
5303;SDS011;2674;49.722;10.892;2023-04-25T00:48:18;5.90;;;5.00;;
5303;SDS011;2674;49.722;10.892;2023-04-25T00:50:48;5.60;;;4.70;;
5303;SDS011;2674;49.722;10.892;2023-04-25T00:53:21;4.60;;;4.20;;
5303;SDS011;2674;49.722;10.892;2023-04-25T00:55:48;4.73;;;4.33;;
5303;SDS011;2674;49.722;10.892;2023-04-25T00:58:16;5.47;;;4.20;;
5303;SDS011;2674;49.722;10.892;2023-04-25T01:00:44;5.60;;;5.03;;
5303;SDS011;2674;49.722;10.892;2023-04-25T01:03:12;9.43;;;4.53;;
5303;SDS011;2674;49.722;10.892;2023-04-25T01:05:39;4.77;;;4.37;;
5303;SDS011;2674;49.722;10.892;2023-04-25T01:08:06;4.93;;;4.50;;
5303;SDS011;2674;49.722;10.892;2023-04-25T01:10:32;7.20;;;4.47;;
5303;SDS011;2674;49.722;10.892;2023-04-25T01:12:58;4.97;;;4.57;;
5303;SDS011;2674;49.722;10.892;2023-04-25T01:15:24;7.20;;;4.20;;
5303;SDS011;2674;49.722;10.892;2023-04-25T01:17:50;4.37;;;4.00;;
5303;SDS011;2674;49.722;10.892;2023-04-25T01:20:16;7.93;;;4.60;;
5303;SDS011;2674;49.722;10.892;2023-04-25T01:22:42;5.13;;;4.40;;
5303;SDS011;2674;49.722;10.892;2023-04-25T01:25:08;4.80;;;4.40;;
5303;SDS011;2674;49.722;10.892;2023-04-25T01:27:35;6.73;;;4.43;;
5303;SDS011;2674;49.722;10.892;2023-04-25T01:30:02;5.00;;;4.40;;
5303;SDS011;2674;49.722;10.892;2023-04-25T01:32:29;4.50;;;4.10;;
5303;SDS011;2674;49.722;10.892;2023-04-25T01:35:04;8.17;;;4.80;;
5303;SDS011;2674;49.722;10.892;2023-04-25T01:37:37;7.57;;;4.50;;
5303;SDS011;2674;49.722;10.892;2023-04-25T01:40:08;6.13;;;4.10;;
5303;SDS011;2674;49.722;10.892;2023-04-25T01:42:35;4.77;;;4.30;;
5303;SDS011;2674;49.722;10.892;2023-04-25T01:45:03;5.27;;;4.83;;
5303;SDS011;2674;49.722;10.892;2023-04-25T01:47:30;8.37;;;5.37;;
5303;SDS011;2674;49.722;10.892;2023-04-25T01:49:56;5.50;;;4.87;;
5303;SDS011;2674;49.722;10.892;2023-04-25T01:52:21;7.90;;;5.23;;
5303;SDS011;2674;49.722;10.892;2023-04-25T01:54:47;5.53;;;5.03;;
5303;SDS011;2674;49.722;10.892;2023-04-25T01:57:13;10.23;;;4.50;;
5303;SDS011;2674;49.722;10.892;2023-04-25T01:59:39;5.77;;;5.07;;
5303;SDS011;2674;49.722;10.892;2023-04-25T02:02:06;5.20;;;4.70;;
5303;SDS011;2674;49.722;10.892;2023-04-25T02:04:32;10.40;;;5.47;;
5303;SDS011;2674;49.722;10.892;2023-04-25T02:06:58;5.03;;;4.63;;
5303;SDS011;2674;49.722;10.892;2023-04-25T02:09:24;5.57;;;5.07;;
5303;SDS011;2674;49.722;10.892;2023-04-25T02:11:50;5.73;;;5.13;;
5303;SDS011;2674;49.722;10.892;2023-04-25T02:14:16;5.90;;;5.13;;
5303;SDS011;2674;49.722;10.892;2023-04-25T02:16:41;11.43;;;5.47;;
5303;SDS011;2674;49.722;10.892;2023-04-25T02:19:09;5.70;;;5.10;;
5303;SDS011;2674;49.722;10.892;2023-04-25T02:21:35;6.23;;;5.63;;
5303;SDS011;2674;49.722;10.892;2023-04-25T02:24:01;11.00;;;6.37;;
5303;SDS011;2674;49.722;10.892;2023-04-25T02:26:27;7.40;;;5.53;;
5303;SDS011;2674;49.722;10.892;2023-04-25T02:28:54;8.90;;;5.50;;
5303;SDS011;2674;49.722;10.892;2023-04-25T02:31:19;9.40;;;5.80;;
5303;SDS011;2674;49.722;10.892;2023-04-25T02:33:45;7.13;;;5.70;;
5303;SDS011;2674;49.722;10.892;2023-04-25T02:36:11;15.70;;;5.87;;
5303;SDS011;2674;49.722;10.892;2023-04-25T02:38:37;7.90;;;5.13;;
5303;SDS011;2674;49.722;10.892;2023-04-25T02:41:03;6.50;;;5.23;;
5303;SDS011;2674;49.722;10.892;2023-04-25T02:43:29;6.10;;;5.50;;
5303;SDS011;2674;49.722;10.892;2023-04-25T02:45:55;6.47;;;5.83;;
5303;SDS011;2674;49.722;10.892;2023-04-25T02:48:20;7.97;;;5.20;;
5303;SDS011;2674;49.722;10.892;2023-04-25T02:50:46;5.30;;;4.80;;
5303;SDS011;2674;49.722;10.892;2023-04-25T02:53:12;7.83;;;4.90;;
5303;SDS011;2674;49.722;10.892;2023-04-25T02:55:38;5.93;;;5.33;;
5303;SDS011;2674;49.722;10.892;2023-04-25T02:58:04;7.07;;;5.20;;
5303;SDS011;2674;49.722;10.892;2023-04-25T03:00:30;5.40;;;4.60;;
5303;SDS011;2674;49.722;10.892;2023-04-25T03:02:56;5.07;;;4.57;;
5303;SDS011;2674;49.722;10.892;2023-04-25T03:05:22;6.63;;;5.00;;
5303;SDS011;2674;49.722;10.892;2023-04-25T03:07:47;5.57;;;4.97;;
5303;SDS011;2674;49.722;10.892;2023-04-25T03:10:13;8.00;;;5.30;;
5303;SDS011;2674;49.722;10.892;2023-04-25T03:12:39;5.63;;;4.97;;
5303;SDS011;2674;49.722;10.892;2023-04-25T03:15:05;5.60;;;5.10;;
5303;SDS011;2674;49.722;10.892;2023-04-25T03:17:31;5.43;;;4.93;;
5303;SDS011;2674;49.722;10.892;2023-04-25T03:19:57;5.93;;;5.33;;
5303;SDS011;2674;49.722;10.892;2023-04-25T03:22:23;5.77;;;4.50;;
5303;SDS011;2674;49.722;10.892;2023-04-25T03:24:49;6.13;;;4.97;;
5303;SDS011;2674;49.722;10.892;2023-04-25T03:27:15;7.03;;;5.10;;
5303;SDS011;2674;49.722;10.892;2023-04-25T03:29:42;5.67;;;5.17;;
5303;SDS011;2674;49.722;10.892;2023-04-25T03:32:07;6.03;;;4.30;;
5303;SDS011;2674;49.722;10.892;2023-04-25T03:34:33;7.60;;;5.63;;
5303;SDS011;2674;49.722;10.892;2023-04-25T03:36:59;10.20;;;5.40;;
5303;SDS011;2674;49.722;10.892;2023-04-25T03:39:25;9.20;;;6.10;;
5303;SDS011;2674;49.722;10.892;2023-04-25T03:41:51;8.90;;;7.20;;
5303;SDS011;2674;49.722;10.892;2023-04-25T03:44:17;11.47;;;5.80;;
5303;SDS011;2674;49.722;10.892;2023-04-25T03:46:43;6.70;;;6.07;;
5303;SDS011;2674;49.722;10.892;2023-04-25T03:49:08;6.20;;;5.50;;
5303;SDS011;2674;49.722;10.892;2023-04-25T03:51:34;11.20;;;6.50;;
5303;SDS011;2674;49.722;10.892;2023-04-25T03:54:00;7.30;;;6.10;;
5303;SDS011;2674;49.722;10.892;2023-04-25T03:56:26;9.27;;;7.40;;
5303;SDS011;2674;49.722;10.892;2023-04-25T03:58:52;10.40;;;5.93;;
5303;SDS011;2674;49.722;10.892;2023-04-25T04:01:18;7.33;;;6.63;;
5303;SDS011;2674;49.722;10.892;2023-04-25T04:03:43;9.20;;;7.30;;
5303;SDS011;2674;49.722;10.892;2023-04-25T04:06:09;8.43;;;6.93;;
5303;SDS011;2674;49.722;10.892;2023-04-25T04:08:35;8.93;;;6.90;;
5303;SDS011;2674;49.722;10.892;2023-04-25T04:11:01;10.30;;;6.63;;
5303;SDS011;2674;49.722;10.892;2023-04-25T04:13:28;9.10;;;6.70;;
5303;SDS011;2674;49.722;10.892;2023-04-25T04:15:54;8.47;;;7.17;;
5303;SDS011;2674;49.722;10.892;2023-04-25T04:18:21;11.00;;;8.30;;
5303;SDS011;2674;49.722;10.892;2023-04-25T04:20:47;8.00;;;6.10;;
5303;SDS011;2674;49.722;10.892;2023-04-25T04:23:12;11.00;;;7.23;;
5303;SDS011;2674;49.722;10.892;2023-04-25T04:25:39;7.00;;;6.30;;
5303;SDS011;2674;49.722;10.892;2023-04-25T04:28:05;7.10;;;5.50;;
5303;SDS011;2674;49.722;10.892;2023-04-25T04:30:32;6.97;;;5.03;;
5303;SDS011;2674;49.722;10.892;2023-04-25T04:33:01;5.53;;;5.03;;
5303;SDS011;2674;49.722;10.892;2023-04-25T04:35:27;6.10;;;5.20;;
5303;SDS011;2674;49.722;10.892;2023-04-25T04:37:53;5.80;;;4.90;;
5303;SDS011;2674;49.722;10.892;2023-04-25T04:40:19;5.27;;;4.33;;
5303;SDS011;2674;49.722;10.892;2023-04-25T04:42:45;5.93;;;4.87;;
5303;SDS011;2674;49.722;10.892;2023-04-25T04:45:11;5.07;;;4.57;;
5303;SDS011;2674;49.722;10.892;2023-04-25T04:47:38;4.40;;;4.00;;
5303;SDS011;2674;49.722;10.892;2023-04-25T04:50:09;4.80;;;4.40;;
5303;SDS011;2674;49.722;10.892;2023-04-25T04:52:36;5.47;;;4.73;;
5303;SDS011;2674;49.722;10.892;2023-04-25T04:55:04;5.47;;;4.63;;
5303;SDS011;2674;49.722;10.892;2023-04-25T04:57:31;5.83;;;5.13;;
5303;SDS011;2674;49.722;10.892;2023-04-25T04:59:58;5.50;;;4.90;;
5303;SDS011;2674;49.722;10.892;2023-04-25T05:02:24;4.30;;;3.90;;
5303;SDS011;2674;49.722;10.892;2023-04-25T05:04:50;3.77;;;3.47;;
5303;SDS011;2674;49.722;10.892;2023-04-25T05:07:17;4.43;;;4.03;;
5303;SDS011;2674;49.722;10.892;2023-04-25T05:09:43;4.33;;;3.93;;
5303;SDS011;2674;49.722;10.892;2023-04-25T05:12:09;4.40;;;4.00;;
5303;SDS011;2674;49.722;10.892;2023-04-25T05:14:35;4.47;;;4.03;;
5303;SDS011;2674;49.722;10.892;2023-04-25T05:17:01;4.73;;;4.20;;
5303;SDS011;2674;49.722;10.892;2023-04-25T05:19:29;4.77;;;4.27;;
5303;SDS011;2674;49.722;10.892;2023-04-25T05:21:55;4.97;;;4.43;;
5303;SDS011;2674;49.722;10.892;2023-04-25T05:24:21;4.50;;;4.10;;
5303;SDS011;2674;49.722;10.892;2023-04-25T05:26:47;5.80;;;4.50;;
5303;SDS011;2674;49.722;10.892;2023-04-25T05:29:13;6.47;;;5.23;;
5303;SDS011;2674;49.722;10.892;2023-04-25T05:31:38;5.10;;;4.37;;
5303;SDS011;2674;49.722;10.892;2023-04-25T05:34:04;8.50;;;4.30;;
5303;SDS011;2674;49.722;10.892;2023-04-25T05:36:30;5.10;;;4.60;;
5303;SDS011;2674;49.722;10.892;2023-04-25T05:38:57;4.80;;;4.10;;
5303;SDS011;2674;49.722;10.892;2023-04-25T05:41:23;5.37;;;4.87;;
5303;SDS011;2674;49.722;10.892;2023-04-25T05:43:49;5.00;;;4.50;;
5303;SDS011;2674;49.722;10.892;2023-04-25T05:46:15;6.27;;;4.57;;
5303;SDS011;2674;49.722;10.892;2023-04-25T05:48:44;5.40;;;4.87;;
5303;SDS011;2674;49.722;10.892;2023-04-25T05:51:09;4.73;;;4.27;;
5303;SDS011;2674;49.722;10.892;2023-04-25T05:53:35;6.00;;;5.20;;
5303;SDS011;2674;49.722;10.892;2023-04-25T05:56:01;5.40;;;4.87;;
5303;SDS011;2674;49.722;10.892;2023-04-25T05:58:27;7.70;;;5.80;;
5303;SDS011;2674;49.722;10.892;2023-04-25T06:00:54;5.30;;;4.80;;
5303;SDS011;2674;49.722;10.892;2023-04-25T06:03:20;5.17;;;4.73;;
5303;SDS011;2674;49.722;10.892;2023-04-25T06:05:49;6.20;;;5.60;;
5303;SDS011;2674;49.722;10.892;2023-04-25T06:08:15;5.90;;;5.40;;
5303;SDS011;2674;49.722;10.892;2023-04-25T06:10:41;8.07;;;6.50;;
5303;SDS011;2674;49.722;10.892;2023-04-25T06:13:07;7.77;;;6.60;;
5303;SDS011;2674;49.722;10.892;2023-04-25T06:15:32;6.67;;;5.97;;
5303;SDS011;2674;49.722;10.892;2023-04-25T06:17:58;12.40;;;6.77;;
5303;SDS011;2674;49.722;10.892;2023-04-25T06:20:24;11.03;;;6.47;;
5303;SDS011;2674;49.722;10.892;2023-04-25T06:22:50;8.90;;;7.77;;
5303;SDS011;2674;49.722;10.892;2023-04-25T06:25:17;11.00;;;7.33;;
5303;SDS011;2674;49.722;10.892;2023-04-25T06:27:43;9.30;;;7.10;;
5303;SDS011;2674;49.722;10.892;2023-04-25T06:30:09;9.77;;;7.07;;
5303;SDS011;2674;49.722;10.892;2023-04-25T06:32:37;10.07;;;7.57;;
5303;SDS011;2674;49.722;10.892;2023-04-25T06:35:03;8.77;;;7.67;;
5303;SDS011;2674;49.722;10.892;2023-04-25T06:37:29;11.17;;;8.80;;
5303;SDS011;2674;49.722;10.892;2023-04-25T06:39:55;13.30;;;9.33;;
5303;SDS011;2674;49.722;10.892;2023-04-25T06:42:21;10.13;;;8.13;;
5303;SDS011;2674;49.722;10.892;2023-04-25T06:44:47;11.37;;;8.47;;
5303;SDS011;2674;49.722;10.892;2023-04-25T06:47:13;12.53;;;8.20;;
5303;SDS011;2674;49.722;10.892;2023-04-25T06:49:39;10.77;;;8.73;;
5303;SDS011;2674;49.722;10.892;2023-04-25T06:52:05;9.47;;;7.80;;
5303;SDS011;2674;49.722;10.892;2023-04-25T06:54:30;12.00;;;8.57;;
5303;SDS011;2674;49.722;10.892;2023-04-25T06:56:56;11.97;;;8.90;;
5303;SDS011;2674;49.722;10.892;2023-04-25T06:59:22;10.20;;;8.70;;
5303;SDS011;2674;49.722;10.892;2023-04-25T07:01:51;11.10;;;8.10;;
5303;SDS011;2674;49.722;10.892;2023-04-25T07:04:30;10.43;;;7.50;;
5303;SDS011;2674;49.722;10.892;2023-04-25T07:06:56;14.93;;;8.00;;
5303;SDS011;2674;49.722;10.892;2023-04-25T07:09:22;12.60;;;7.83;;
5303;SDS011;2674;49.722;10.892;2023-04-25T07:11:48;10.50;;;6.43;;
5303;SDS011;2674;49.722;10.892;2023-04-25T07:14:14;9.57;;;6.63;;
5303;SDS011;2674;49.722;10.892;2023-04-25T07:16:40;7.43;;;5.67;;
5303;SDS011;2674;49.722;10.892;2023-04-25T07:19:09;8.73;;;5.53;;
5303;SDS011;2674;49.722;10.892;2023-04-25T07:21:35;16.97;;;9.70;;
5303;SDS011;2674;49.722;10.892;2023-04-25T07:24:01;11.17;;;7.37;;
5303;SDS011;2674;49.722;10.892;2023-04-25T07:26:27;11.90;;;7.30;;
5303;SDS011;2674;49.722;10.892;2023-04-25T07:28:53;12.13;;;7.10;;
5303;SDS011;2674;49.722;10.892;2023-04-25T07:31:19;6.33;;;4.50;;
5303;SDS011;2674;49.722;10.892;2023-04-25T07:33:46;6.93;;;4.17;;
5303;SDS011;2674;49.722;10.892;2023-04-25T07:36:12;5.20;;;4.70;;
5303;SDS011;2674;49.722;10.892;2023-04-25T07:38:40;4.90;;;4.00;;
5303;SDS011;2674;49.722;10.892;2023-04-25T07:41:06;6.03;;;4.87;;
5303;SDS011;2674;49.722;10.892;2023-04-25T07:43:32;9.43;;;4.70;;
5303;SDS011;2674;49.722;10.892;2023-04-25T07:45:58;8.90;;;5.00;;
5303;SDS011;2674;49.722;10.892;2023-04-25T07:48:23;6.00;;;4.13;;
5303;SDS011;2674;49.722;10.892;2023-04-25T07:50:49;5.73;;;4.80;;
5303;SDS011;2674;49.722;10.892;2023-04-25T07:53:15;8.70;;;6.13;;
5303;SDS011;2674;49.722;10.892;2023-04-25T07:55:42;11.87;;;5.03;;
5303;SDS011;2674;49.722;10.892;2023-04-25T07:58:08;8.10;;;4.80;;
5303;SDS011;2674;49.722;10.892;2023-04-25T08:00:35;5.13;;;3.97;;
5303;SDS011;2674;49.722;10.892;2023-04-25T08:03:01;8.53;;;4.40;;
5303;SDS011;2674;49.722;10.892;2023-04-25T08:05:28;8.37;;;4.97;;
5303;SDS011;2674;49.722;10.892;2023-04-25T08:07:54;5.13;;;4.00;;
5303;SDS011;2674;49.722;10.892;2023-04-25T08:10:21;6.10;;;4.70;;
5303;SDS011;2674;49.722;10.892;2023-04-25T08:12:48;7.00;;;3.80;;
5303;SDS011;2674;49.722;10.892;2023-04-25T08:15:14;16.80;;;3.80;;
5303;SDS011;2674;49.722;10.892;2023-04-25T08:17:40;5.70;;;4.33;;
5303;SDS011;2674;49.722;10.892;2023-04-25T08:20:06;5.83;;;3.37;;
5303;SDS011;2674;49.722;10.892;2023-04-25T08:22:32;5.87;;;4.30;;
5303;SDS011;2674;49.722;10.892;2023-04-25T08:24:59;4.93;;;4.40;;
5303;SDS011;2674;49.722;10.892;2023-04-25T08:27:26;6.20;;;3.67;;
5303;SDS011;2674;49.722;10.892;2023-04-25T08:29:51;4.37;;;3.60;;
5303;SDS011;2674;49.722;10.892;2023-04-25T08:32:18;7.37;;;3.93;;
5303;SDS011;2674;49.722;10.892;2023-04-25T08:34:44;4.00;;;2.87;;
5303;SDS011;2674;49.722;10.892;2023-04-25T08:37:10;3.93;;;3.53;;
5303;SDS011;2674;49.722;10.892;2023-04-25T08:39:36;3.90;;;2.83;;
5303;SDS011;2674;49.722;10.892;2023-04-25T08:42:05;8.20;;;3.50;;
5303;SDS011;2674;49.722;10.892;2023-04-25T08:44:35;2.87;;;2.53;;
5303;SDS011;2674;49.722;10.892;2023-04-25T08:47:04;4.37;;;3.00;;
5303;SDS011;2674;49.722;10.892;2023-04-25T08:49:34;3.53;;;2.57;;
5303;SDS011;2674;49.722;10.892;2023-04-25T08:52:01;2.10;;;2.00;;
5303;SDS011;2674;49.722;10.892;2023-04-25T08:54:29;11.57;;;2.70;;
5303;SDS011;2674;49.722;10.892;2023-04-25T08:56:57;2.13;;;1.93;;
5303;SDS011;2674;49.722;10.892;2023-04-25T08:59:27;2.80;;;2.60;;
5303;SDS011;2674;49.722;10.892;2023-04-25T09:01:53;3.73;;;2.73;;
5303;SDS011;2674;49.722;10.892;2023-04-25T09:04:19;4.40;;;3.20;;
5303;SDS011;2674;49.722;10.892;2023-04-25T09:06:46;2.20;;;2.10;;
5303;SDS011;2674;49.722;10.892;2023-04-25T09:09:12;5.27;;;3.53;;
5303;SDS011;2674;49.722;10.892;2023-04-25T09:11:39;3.20;;;2.90;;
5303;SDS011;2674;49.722;10.892;2023-04-25T09:14:12;2.50;;;2.40;;
5303;SDS011;2674;49.722;10.892;2023-04-25T09:19:24;3.27;;;2.33;;
5303;SDS011;2674;49.722;10.892;2023-04-25T09:21:58;4.07;;;2.60;;
5303;SDS011;2674;49.722;10.892;2023-04-25T09:24:38;4.60;;;3.10;;
5303;SDS011;2674;49.722;10.892;2023-04-25T09:27:11;2.87;;;2.40;;
5303;SDS011;2674;49.722;10.892;2023-04-25T09:29:42;3.07;;;2.27;;
5303;SDS011;2674;49.722;10.892;2023-04-25T09:34:46;3.93;;;2.50;;
5303;SDS011;2674;49.722;10.892;2023-04-25T09:37:19;4.87;;;3.10;;
5303;SDS011;2674;49.722;10.892;2023-04-25T09:39:50;3.40;;;2.17;;
5303;SDS011;2674;49.722;10.892;2023-04-25T09:42:21;2.47;;;2.30;;
5303;SDS011;2674;49.722;10.892;2023-04-25T09:44:51;2.60;;;2.40;;
5303;SDS011;2674;49.722;10.892;2023-04-25T09:47:18;3.17;;;2.57;;
5303;SDS011;2674;49.722;10.892;2023-04-25T09:49:46;3.07;;;2.23;;
5303;SDS011;2674;49.722;10.892;2023-04-25T09:52:30;2.93;;;2.37;;
5303;SDS011;2674;49.722;10.892;2023-04-25T09:54:56;2.73;;;2.53;;
5303;SDS011;2674;49.722;10.892;2023-04-25T09:57:23;4.20;;;2.60;;
5303;SDS011;2674;49.722;10.892;2023-04-25T09:59:53;6.73;;;5.90;;
5303;SDS011;2674;49.722;10.892;2023-04-25T10:02:21;5.47;;;3.70;;
5303;SDS011;2674;49.722;10.892;2023-04-25T10:04:49;6.93;;;3.60;;
5303;SDS011;2674;49.722;10.892;2023-04-25T10:07:18;12.53;;;5.70;;
5303;SDS011;2674;49.722;10.892;2023-04-25T10:09:47;5.43;;;3.13;;
5303;SDS011;2674;49.722;10.892;2023-04-25T10:12:15;2.60;;;2.30;;
5303;SDS011;2674;49.722;10.892;2023-04-25T10:14:42;5.53;;;3.13;;
5303;SDS011;2674;49.722;10.892;2023-04-25T10:17:10;3.07;;;2.60;;
5303;SDS011;2674;49.722;10.892;2023-04-25T10:19:39;5.30;;;3.77;;
5303;SDS011;2674;49.722;10.892;2023-04-25T10:22:11;4.57;;;3.63;;
5303;SDS011;2674;49.722;10.892;2023-04-25T10:24:48;2.77;;;2.57;;
5303;SDS011;2674;49.722;10.892;2023-04-25T10:27:15;5.07;;;2.40;;
5303;SDS011;2674;49.722;10.892;2023-04-25T10:29:41;3.93;;;2.20;;
5303;SDS011;2674;49.722;10.892;2023-04-25T10:32:10;1.60;;;1.50;;
5303;SDS011;2674;49.722;10.892;2023-04-25T10:34:40;2.27;;;1.67;;
5303;SDS011;2674;49.722;10.892;2023-04-25T10:37:08;2.73;;;1.80;;
5303;SDS011;2674;49.722;10.892;2023-04-25T10:39:35;2.30;;;1.70;;
5303;SDS011;2674;49.722;10.892;2023-04-25T10:42:07;2.00;;;1.70;;
5303;SDS011;2674;49.722;10.892;2023-04-25T10:44:33;2.17;;;1.63;;
5303;SDS011;2674;49.722;10.892;2023-04-25T10:47:02;4.60;;;1.80;;
5303;SDS011;2674;49.722;10.892;2023-04-25T10:54:55;2.20;;;1.80;;
5303;SDS011;2674;49.722;10.892;2023-04-25T11:02:42;2.17;;;1.97;;
5303;SDS011;2674;49.722;10.892;2023-04-25T11:05:22;1.43;;;1.33;;
5303;SDS011;2674;49.722;10.892;2023-04-25T11:07:58;1.77;;;1.67;;
5303;SDS011;2674;49.722;10.892;2023-04-25T11:10:28;1.70;;;1.57;;
5303;SDS011;2674;49.722;10.892;2023-04-25T11:12:56;3.23;;;1.97;;
5303;SDS011;2674;49.722;10.892;2023-04-25T11:15:22;3.70;;;1.80;;
5303;SDS011;2674;49.722;10.892;2023-04-25T11:17:50;1.30;;;1.30;;
5303;SDS011;2674;49.722;10.892;2023-04-25T11:20:20;1.90;;;1.30;;
5303;SDS011;2674;49.722;10.892;2023-04-25T11:22:46;1.47;;;1.37;;
5303;SDS011;2674;49.722;10.892;2023-04-25T11:25:13;1.47;;;1.37;;
5303;SDS011;2674;49.722;10.892;2023-04-25T11:27:51;2.60;;;1.40;;
5303;SDS011;2674;49.722;10.892;2023-04-25T11:30:22;1.33;;;1.23;;
5303;SDS011;2674;49.722;10.892;2023-04-25T11:32:49;2.40;;;1.80;;
5303;SDS011;2674;49.722;10.892;2023-04-25T11:35:16;2.37;;;1.67;;
5303;SDS011;2674;49.722;10.892;2023-04-25T11:37:44;3.43;;;1.43;;
5303;SDS011;2674;49.722;10.892;2023-04-25T11:40:10;1.50;;;1.40;;
5303;SDS011;2674;49.722;10.892;2023-04-25T11:42:37;1.57;;;1.47;;
5303;SDS011;2674;49.722;10.892;2023-04-25T11:45:04;2.13;;;1.70;;
5303;SDS011;2674;49.722;10.892;2023-04-25T11:47:31;1.70;;;1.60;;
5303;SDS011;2674;49.722;10.892;2023-04-25T11:49:58;1.73;;;1.63;;
5303;SDS011;2674;49.722;10.892;2023-04-25T11:52:35;1.73;;;1.63;;
5303;SDS011;2674;49.722;10.892;2023-04-25T11:55:01;4.73;;;1.77;;
5303;SDS011;2674;49.722;10.892;2023-04-25T11:57:30;1.60;;;1.50;;
5303;SDS011;2674;49.722;10.892;2023-04-25T12:00:04;4.63;;;2.00;;
5303;SDS011;2674;49.722;10.892;2023-04-25T12:02:45;5.00;;;2.10;;
5303;SDS011;2674;49.722;10.892;2023-04-25T12:05:13;1.87;;;1.77;;
5303;SDS011;2674;49.722;10.892;2023-04-25T12:07:43;3.00;;;2.00;;
5303;SDS011;2674;49.722;10.892;2023-04-25T12:12:37;2.23;;;1.80;;
5303;SDS011;2674;49.722;10.892;2023-04-25T12:17:44;2.10;;;2.00;;
5303;SDS011;2674;49.722;10.892;2023-04-25T12:20:15;2.30;;;1.73;;
5303;SDS011;2674;49.722;10.892;2023-04-25T12:22:46;2.73;;;2.10;;
5303;SDS011;2674;49.722;10.892;2023-04-25T12:25:33;4.27;;;2.10;;
5303;SDS011;2674;49.722;10.892;2023-04-25T12:28:17;4.93;;;2.70;;
5303;SDS011;2674;49.722;10.892;2023-04-25T12:30:59;3.47;;;3.03;;
5303;SDS011;2674;49.722;10.892;2023-04-25T12:33:32;2.60;;;2.13;;
5303;SDS011;2674;49.722;10.892;2023-04-25T12:35:59;1.70;;;1.60;;
5303;SDS011;2674;49.722;10.892;2023-04-25T12:38:29;2.60;;;2.40;;
5303;SDS011;2674;49.722;10.892;2023-04-25T12:40:59;2.33;;;2.23;;
5303;SDS011;2674;49.722;10.892;2023-04-25T12:43:25;3.70;;;2.37;;
5303;SDS011;2674;49.722;10.892;2023-04-25T12:45:51;2.00;;;1.90;;
5303;SDS011;2674;49.722;10.892;2023-04-25T12:48:19;2.90;;;2.70;;
5303;SDS011;2674;49.722;10.892;2023-04-25T12:50:46;3.93;;;2.13;;
5303;SDS011;2674;49.722;10.892;2023-04-25T12:53:16;1.67;;;1.57;;
5303;SDS011;2674;49.722;10.892;2023-04-25T12:55:45;8.60;;;2.43;;
5303;SDS011;2674;49.722;10.892;2023-04-25T12:58:12;5.70;;;2.30;;
5303;SDS011;2674;49.722;10.892;2023-04-25T13:00:42;3.90;;;2.00;;
5303;SDS011;2674;49.722;10.892;2023-04-25T13:03:09;2.67;;;2.47;;
5303;SDS011;2674;49.722;10.892;2023-04-25T13:05:38;2.07;;;1.97;;
5303;SDS011;2674;49.722;10.892;2023-04-25T13:08:04;4.67;;;2.60;;
5303;SDS011;2674;49.722;10.892;2023-04-25T13:10:30;3.00;;;2.53;;
5303;SDS011;2674;49.722;10.892;2023-04-25T13:12:58;2.00;;;1.90;;
5303;SDS011;2674;49.722;10.892;2023-04-25T13:15:24;2.93;;;2.60;;
5303;SDS011;2674;49.722;10.892;2023-04-25T13:17:50;3.37;;;2.80;;
5303;SDS011;2674;49.722;10.892;2023-04-25T13:20:16;4.63;;;2.23;;
5303;SDS011;2674;49.722;10.892;2023-04-25T13:22:43;2.30;;;1.80;;
5303;SDS011;2674;49.722;10.892;2023-04-25T13:25:10;4.03;;;2.70;;
5303;SDS011;2674;49.722;10.892;2023-04-25T13:27:37;3.60;;;3.00;;
5303;SDS011;2674;49.722;10.892;2023-04-25T13:30:04;4.03;;;3.63;;
5303;SDS011;2674;49.722;10.892;2023-04-25T13:32:34;4.20;;;2.73;;
5303;SDS011;2674;49.722;10.892;2023-04-25T13:35:07;3.70;;;2.50;;
5303;SDS011;2674;49.722;10.892;2023-04-25T13:37:37;2.40;;;2.30;;
5303;SDS011;2674;49.722;10.892;2023-04-25T13:40:05;4.03;;;2.67;;
5303;SDS011;2674;49.722;10.892;2023-04-25T13:42:36;2.87;;;2.67;;
5303;SDS011;2674;49.722;10.892;2023-04-25T13:45:03;4.53;;;2.70;;
5303;SDS011;2674;49.722;10.892;2023-04-25T13:47:29;2.80;;;2.60;;
5303;SDS011;2674;49.722;10.892;2023-04-25T13:49:55;4.73;;;2.50;;
5303;SDS011;2674;49.722;10.892;2023-04-25T13:52:22;4.60;;;2.23;;
5303;SDS011;2674;49.722;10.892;2023-04-25T13:54:49;2.47;;;2.03;;
5303;SDS011;2674;49.722;10.892;2023-04-25T13:57:16;4.00;;;3.70;;
5303;SDS011;2674;49.722;10.892;2023-04-25T13:59:42;3.53;;;3.20;;
5303;SDS011;2674;49.722;10.892;2023-04-25T14:02:08;3.17;;;2.60;;
5303;SDS011;2674;49.722;10.892;2023-04-25T14:04:34;2.83;;;2.63;;
5303;SDS011;2674;49.722;10.892;2023-04-25T14:07:00;2.53;;;2.33;;
5303;SDS011;2674;49.722;10.892;2023-04-25T14:09:27;6.23;;;2.10;;
5303;SDS011;2674;49.722;10.892;2023-04-25T14:11:53;2.23;;;2.10;;
5303;SDS011;2674;49.722;10.892;2023-04-25T14:14:20;3.90;;;2.37;;
5303;SDS011;2674;49.722;10.892;2023-04-25T14:16:47;4.60;;;2.30;;
5303;SDS011;2674;49.722;10.892;2023-04-25T14:19:14;2.43;;;2.33;;
5303;SDS011;2674;49.722;10.892;2023-04-25T14:21:40;2.10;;;2.00;;
5303;SDS011;2674;49.722;10.892;2023-04-25T14:24:06;3.00;;;2.20;;
5303;SDS011;2674;49.722;10.892;2023-04-25T14:26:33;2.80;;;2.60;;
5303;SDS011;2674;49.722;10.892;2023-04-25T14:29:02;2.30;;;2.10;;
5303;SDS011;2674;49.722;10.892;2023-04-25T14:31:30;3.10;;;2.80;;
5303;SDS011;2674;49.722;10.892;2023-04-25T14:33:56;3.33;;;2.80;;
5303;SDS011;2674;49.722;10.892;2023-04-25T14:36:22;3.13;;;2.60;;
5303;SDS011;2674;49.722;10.892;2023-04-25T14:38:48;4.47;;;3.40;;
5303;SDS011;2674;49.722;10.892;2023-04-25T14:41:14;3.40;;;3.10;;
5303;SDS011;2674;49.722;10.892;2023-04-25T14:43:40;2.90;;;2.40;;
5303;SDS011;2674;49.722;10.892;2023-04-25T14:46:06;2.60;;;2.40;;
5303;SDS011;2674;49.722;10.892;2023-04-25T14:48:32;2.00;;;1.83;;
5303;SDS011;2674;49.722;10.892;2023-04-25T14:51:03;3.50;;;2.53;;
5303;SDS011;2674;49.722;10.892;2023-04-25T14:53:29;2.17;;;2.07;;
5303;SDS011;2674;49.722;10.892;2023-04-25T14:55:56;3.03;;;2.17;;
5303;SDS011;2674;49.722;10.892;2023-04-25T14:58:22;2.87;;;2.07;;
5303;SDS011;2674;49.722;10.892;2023-04-25T15:00:48;4.40;;;2.20;;
5303;SDS011;2674;49.722;10.892;2023-04-25T15:03:14;2.37;;;1.90;;
5303;SDS011;2674;49.722;10.892;2023-04-25T15:05:43;3.43;;;2.87;;
5303;SDS011;2674;49.722;10.892;2023-04-25T15:08:09;3.77;;;2.17;;
5303;SDS011;2674;49.722;10.892;2023-04-25T15:10:35;2.77;;;2.13;;
5303;SDS011;2674;49.722;10.892;2023-04-25T15:13:01;2.20;;;2.00;;
5303;SDS011;2674;49.722;10.892;2023-04-25T15:15:28;2.33;;;2.20;;
5303;SDS011;2674;49.722;10.892;2023-04-25T15:17:54;5.03;;;2.30;;
5303;SDS011;2674;49.722;10.892;2023-04-25T15:20:21;1.90;;;1.80;;
5303;SDS011;2674;49.722;10.892;2023-04-25T15:22:47;2.00;;;1.90;;